Time;durP1;ratioP1;P1;durP2;ratioP2;P2;SDS_P1;SDS_P2;PMS_P1;PMS_P2;Temp;Humidity;BMP_temperature;BMP_pressure;BME280_temperature;BME280_humidity;BME280_pressure;Samples;Min_cycle;Max_cycle;Signal;HPM_P1;HPM_P2
2023/11/29 00:00:42;;;;;;;;;;;;;;;-144.99;100.00;52668.22;5037716;28;20045;-63
2023/11/29 00:03:08;;;;;;;;;;;;;;;-144.99;100.00;52631.53;5025571;28;19941;-63
2023/11/29 00:05:36;;;;;;;;;;;;;;;-144.99;100.00;52647.84;5018993;28;19933;-64
2023/11/29 00:08:04;;;;;;;;;;;;;;;-144.99;100.00;52692.69;5033057;28;19956;-63
2023/11/29 00:10:31;;;;;;;;;;;;;;;-144.99;100.00;52684.53;5031149;28;19983;-63
2023/11/29 00:12:59;;;;;;;;;;;;;;;-144.99;100.00;52709.00;5033112;28;19925;-63
2023/11/29 00:15:25;;;;;;;;;;;;;;;-144.99;100.00;52645.81;5037076;28;19937;-63
2023/11/29 00:17:52;;;;;;;;;;;;;;;-144.99;100.00;52660.09;5026009;28;20018;-64
2023/11/29 00:20:18;;;;;;;;;;;;;;;-144.99;100.00;52664.16;5039272;28;20400;-63
2023/11/29 00:22:45;;;;;;;;;;;;;;;-144.99;100.00;52700.84;5031698;28;19929;-63
2023/11/29 00:25:12;;;;;;;;;;;;;;;-144.99;100.00;52684.53;5027362;28;19929;-62
2023/11/29 00:27:39;;;;;;;;;;;;;;;-144.99;100.00;52688.63;4684249;28;10000515;-62
2023/11/29 00:30:07;;;;;;;;;;;;;;;-144.99;100.00;52658.03;5025394;28;19983;-62
2023/11/29 00:32:34;;;;;;;;;;;;;;;-144.99;100.00;52662.13;5034638;28;19983;-62
2023/11/29 00:35:00;;;;;;;;;;;;;;;-144.99;100.00;52647.84;5032056;28;20426;-63
2023/11/29 00:37:27;;;;;;;;;;;;;;;-144.99;100.00;52643.78;5040082;28;19929;-65
2023/11/29 00:39:53;;;;;;;;;;;;;;;-144.99;100.00;52686.59;5033294;28;19929;-64
2023/11/29 00:42:20;;;;;;;;;;;;;;;-144.99;100.00;52656.00;5037194;28;19939;-65
2023/11/29 00:44:46;;;;;;;;;;;;;;;-144.99;100.00;52664.16;5026167;28;19968;-65
2023/11/29 00:47:14;;;;;;;;;;;;;;;-144.99;100.00;52645.81;5027464;28;19979;-65
2023/11/29 00:49:41;;;;;;;;;;;;;;;-144.99;100.00;52647.84;5032821;28;19979;-66
2023/11/29 00:52:07;;;;;;;;;;;;;;;-144.99;100.00;52653.97;5038112;28;19932;-66
2023/11/29 00:54:34;;;;;;;;;;;;;;;-144.99;100.00;52688.63;5039650;22;19933;-73
2023/11/29 00:57:01;;;;;;;;;;;;;;;-144.99;100.00;52662.13;5008548;28;20012;-72
2023/11/29 00:59:27;;;;;;;;;;;;;;;-144.99;100.00;52682.50;5019008;28;19929;-72
2023/11/29 01:01:54;;;;;;;;;;;;;;;-144.99;100.00;52696.78;5016187;28;19929;-73
2023/11/29 01:04:21;;;;;;;;;;;;;;;-144.99;100.00;52647.84;5029869;28;19955;-72
2023/11/29 01:06:48;;;;;;;;;;;;;;;-144.99;100.00;52664.16;5031794;28;19925;-73
2023/11/29 01:09:14;;;;;;;;;;;;;;;-144.99;100.00;52684.53;5039597;28;19960;-73
2023/11/29 01:11:41;;;;;;;;;;;;;;;-144.99;100.00;52676.38;5038499;28;19972;-73
2023/11/29 01:14:08;;;;;;;;;;;;;;;-144.99;100.00;52643.78;5037439;28;19963;-72
2023/11/29 01:16:35;;;;;;;;;;;;;;;-144.99;100.00;52680.47;5038172;28;19952;-72
2023/11/29 01:19:01;;;;;;;;;;;;;;;-144.99;100.00;52656.00;5039610;28;19926;-73
2023/11/29 01:21:29;;;;;;;;;;;;;;;-144.99;100.00;52660.09;5038703;28;19929;-72
2023/11/29 01:23:55;;;;;;;;;;;;;;;-144.99;100.00;52660.09;5037694;28;19925;-73
2023/11/29 01:26:22;;;;;;;;;;;;;;;-144.99;100.00;52664.16;5035021;28;20067;-72
2023/11/29 01:28:48;;;;;;;;;;;;;;;-144.99;100.00;52674.34;5039611;28;19960;-73
2023/11/29 01:31:16;;;;;;;;;;;;;;;-144.99;100.00;52639.69;5042834;28;19975;-72
2023/11/29 01:33:43;;;;;;;;;;;;;;;-144.99;100.00;52619.31;5040175;28;20408;-74
2023/11/29 01:36:10;;;;;;;;;;;;;;;-144.99;100.00;52717.16;5036603;28;19979;-73
2023/11/29 01:38:38;;;;;;;;;;;;;;;-144.99;100.00;52664.16;5032477;28;20048;-73
2023/11/29 01:41:05;;;;;;;;;;;;;;;-144.99;100.00;52643.78;5039427;28;19926;-73
2023/11/29 01:43:31;;;;;;;;;;;;;;;-144.99;100.00;52688.63;5028195;28;19964;-74
2023/11/29 01:45:58;;;;;;;;;;;;;;;-144.99;100.00;52668.22;5040537;28;19978;-72
2023/11/29 01:48:26;;;;;;;;;;;;;;;-144.99;100.00;52680.47;5033613;28;19929;-73
2023/11/29 01:50:53;;;;;;;;;;;;;;;-144.99;100.00;52668.22;5048671;28;19935;-73
2023/11/29 01:53:22;;;;;;;;;;;;;;;-144.99;100.00;52692.69;5040072;28;20440;-72
2023/11/29 01:55:52;;;;;;;;;;;;;;;-144.99;100.00;52645.81;5028667;28;19937;-71
2023/11/29 01:58:19;;;;;;;;;;;;;;;-144.99;100.00;52666.19;5035135;28;19929;-71
2023/11/29 02:00:45;;;;;;;;;;;;;;;-144.99;100.00;52627.47;5041007;28;19991;-70
2023/11/29 02:03:12;;;;;;;;;;;;;;;-144.99;100.00;52688.63;5037286;28;19968;-70
2023/11/29 02:05:39;;;;;;;;;;;;;;;-144.99;100.00;52692.69;5034381;28;20406;-71
2023/11/29 02:08:05;;;;;;;;;;;;;;;-144.99;100.00;52668.22;5034429;28;19968;-71
2023/11/29 02:10:32;;;;;;;;;;;;;;;-144.99;100.00;52643.78;5033697;28;19929;-71
2023/11/29 02:13:00;;;;;;;;;;;;;;;-144.99;100.00;52653.97;5018963;28;19952;-72
2023/11/29 02:15:27;;;;;;;;;;;;;;;-144.99;100.00;52643.78;5035079;28;19999;-72
2023/11/29 02:17:53;;;;;;;;;;;;;;;-144.99;100.00;52676.38;5035327;28;19975;-70
2023/11/29 02:20:20;;;;;;;;;;;;;;;-144.99;100.00;52680.47;5037383;28;19967;-72
2023/11/29 02:22:48;;;;;;;;;;;;;;;-144.99;100.00;52651.94;5038190;28;19976;-72
2023/11/29 02:25:16;;;;;;;;;;;;;;;-144.99;100.00;52651.94;5037773;28;19971;-74
2023/11/29 02:27:43;;;;;;;;;;;;;;;-144.99;100.00;52688.63;5031875;28;19973;-73
2023/11/29 02:30:10;;;;;;;;;;;;;;;-144.99;100.00;52668.22;5041449;28;19964;-71
2023/11/29 02:32:37;;;;;;;;;;;;;;;-144.99;100.00;52631.53;5035130;28;19932;-71
2023/11/29 02:35:03;;;;;;;;;;;;;;;-144.99;100.00;52656.00;5035636;28;20356;-72
2023/11/29 02:37:30;;;;;;;;;;;;;;;-144.99;100.00;52686.59;5036592;28;19968;-71
2023/11/29 02:39:57;;;;;;;;;;;;;;;-144.99;100.00;52660.09;5037965;28;19998;-72
2023/11/29 02:42:25;;;;;;;;;;;;;;;-144.99;100.00;52717.16;5038047;28;20004;-72
2023/11/29 02:44:51;;;;;;;;;;;;;;;-144.99;100.00;52676.38;5031833;28;20389;-73
2023/11/29 02:47:18;;;;;;;;;;;;;;;-144.99;100.00;52653.97;5032777;28;19932;-72
2023/11/29 02:49:44;;;;;;;;;;;;;;;-144.99;100.00;52662.13;5028207;28;19929;-71
2023/11/29 02:52:11;;;;;;;;;;;;;;;-144.99;100.00;52627.47;5032785;28;19948;-72
2023/11/29 02:54:37;;;;;;;;;;;;;;;-144.99;100.00;52668.22;5034513;28;19925;-72
2023/11/29 02:57:04;;;;;;;;;;;;;;;-144.99;100.00;52631.53;5035098;28;19978;-71
2023/11/29 02:59:31;;;;;;;;;;;;;;;-144.99;100.00;52664.16;5037918;28;19925;-71
2023/11/29 03:01:58;;;;;;;;;;;;;;;-144.99;100.00;52680.47;5036935;28;19998;-70
2023/11/29 03:04:24;;;;;;;;;;;;;;;-144.99;100.00;52647.84;5038095;28;19992;-71
2023/11/29 03:06:50;;;;;;;;;;;;;;;-144.99;100.00;52658.03;5035091;28;19929;-72
2023/11/29 03:09:16;;;;;;;;;;;;;;;-144.99;100.00;52635.63;5032619;28;19988;-72
2023/11/29 03:11:43;;;;;;;;;;;;;;;-144.99;100.00;52664.16;5036180;28;20452;-73
2023/11/29 03:14:09;;;;;;;;;;;;;;;-144.99;100.00;52629.50;5034290;28;20587;-74
2023/11/29 03:16:37;;;;;;;;;;;;;;;-144.99;100.00;52660.09;5036575;28;19948;-73
2023/11/29 03:19:04;;;;;;;;;;;;;;;-144.99;100.00;52668.22;5036239;28;19972;-72
2023/11/29 03:21:30;;;;;;;;;;;;;;;-144.99;100.00;52647.84;5035924;28;19925;-71
2023/11/29 03:23:57;;;;;;;;;;;;;;;-144.99;100.00;52660.09;5030698;28;19929;-71
2023/11/29 03:26:23;;;;;;;;;;;;;;;-144.99;100.00;52651.94;5036451;28;19928;-69
2023/11/29 03:28:50;;;;;;;;;;;;;;;-144.99;100.00;52631.53;5035728;28;19986;-70
2023/11/29 03:31:16;;;;;;;;;;;;;;;-144.99;100.00;52700.84;5040269;28;19929;-71
2023/11/29 03:33:44;;;;;;;;;;;;;;;-144.99;100.00;52647.84;5044325;28;19925;-70
2023/11/29 03:36:10;;;;;;;;;;;;;;;-144.99;100.00;52653.97;5030553;28;20386;-70
2023/11/29 03:38:37;;;;;;;;;;;;;;;-144.99;100.00;52643.78;5055355;28;19917;-73
2023/11/29 03:41:03;;;;;;;;;;;;;;;-144.99;100.00;52651.94;5055937;28;19939;-72
2023/11/29 03:43:30;;;;;;;;;;;;;;;-144.99;100.00;52611.16;5048983;28;20181;-71
2023/11/29 03:45:56;;;;;;;;;;;;;;;-144.99;100.00;52680.47;5053196;28;19924;-73
2023/11/29 03:48:23;;;;;;;;;;;;;;;-144.99;100.00;52627.47;5045073;28;19948;-73
2023/11/29 03:50:51;;;;;;;;;;;;;;;-144.99;100.00;52639.69;5037629;28;19926;-72
2023/11/29 03:53:17;;;;;;;;;;;;;;;-144.99;100.00;52641.72;5052168;28;19931;-71
2023/11/29 03:55:44;;;;;;;;;;;;;;;-144.99;100.00;52627.47;5049944;28;19925;-71
2023/11/29 03:58:10;;;;;;;;;;;;;;;-144.99;100.00;52684.53;5041417;28;19925;-73
2023/11/29 04:00:37;;;;;;;;;;;;;;;-144.99;100.00;52660.09;5042349;28;19948;-72
2023/11/29 04:03:03;;;;;;;;;;;;;;;-144.99;100.00;52660.09;5052590;28;19929;-73
2023/11/29 04:05:30;;;;;;;;;;;;;;;-144.99;100.00;52619.31;5056795;28;19942;-70
2023/11/29 04:07:58;;;;;;;;;;;;;;;-144.99;100.00;52672.31;5048238;28;19926;-72
2023/11/29 04:10:24;;;;;;;;;;;;;;;-144.99;100.00;52627.47;5060764;28;19928;-73
2023/11/29 04:12:50;;;;;;;;;;;;;;;-144.99;100.00;52623.38;5041583;28;19925;-71
2023/11/29 04:15:17;;;;;;;;;;;;;;;-144.99;100.00;52635.63;5034067;28;20412;-71
2023/11/29 04:17:43;;;;;;;;;;;;;;;-144.99;100.00;52672.31;5029598;28;20408;-70
2023/11/29 04:20:10;;;;;;;;;;;;;;;-144.99;100.00;52598.94;5028730;28;20396;-71
2023/11/29 04:22:38;;;;;;;;;;;;;;;-144.99;100.00;52651.94;5025981;28;19965;-72
2023/11/29 04:25:07;;;;;;;;;;;;;;;-144.99;100.00;52674.34;5018690;28;19925;-72
2023/11/29 04:27:33;;;;;;;;;;;;;;;-144.99;100.00;52631.53;5018187;28;20037;-71
2023/11/29 04:30:00;;;;;;;;;;;;;;;-144.99;100.00;52688.63;5033352;28;20515;-72
2023/11/29 04:32:26;;;;;;;;;;;;;;;-144.99;100.00;52615.25;5033715;28;19972;-71
2023/11/29 04:34:52;;;;;;;;;;;;;;;-144.99;100.00;52603.00;5034987;28;20278;-70
2023/11/29 04:37:19;;;;;;;;;;;;;;;-144.99;100.00;52647.84;5029054;28;19967;-73
2023/11/29 04:39:45;;;;;;;;;;;;;;;-144.99;100.00;52631.53;5031539;28;20458;-71
2023/11/29 04:42:13;;;;;;;;;;;;;;;-144.99;100.00;52688.63;5029404;28;20390;-71
2023/11/29 04:44:40;;;;;;;;;;;;;;;-144.99;100.00;52623.38;5026646;28;19932;-71
2023/11/29 04:47:06;;;;;;;;;;;;;;;-144.99;100.00;52664.16;5049572;28;19948;-73
2023/11/29 04:49:33;;;;;;;;;;;;;;;-144.99;100.00;52670.28;5046856;28;19945;-74
2023/11/29 04:51:59;;;;;;;;;;;;;;;-144.99;100.00;52631.53;5052537;28;19951;-73
2023/11/29 04:54:26;;;;;;;;;;;;;;;-144.99;100.00;52605.03;5051575;28;19933;-73
2023/11/29 04:56:52;;;;;;;;;;;;;;;-144.99;100.00;52649.88;5055726;28;20277;-71
2023/11/29 04:59:20;;;;;;;;;;;;;;;-144.99;100.00;52631.53;5058236;28;20458;-72
2023/11/29 05:01:47;;;;;;;;;;;;;;;-144.99;100.00;52658.03;5047640;28;19947;-73
2023/11/29 05:04:13;;;;;;;;;;;;;;;-144.99;100.00;52651.94;5050857;28;19925;-75
2023/11/29 05:06:40;;;;;;;;;;;;;;;-144.99;100.00;52639.69;5055461;28;19925;-78
2023/11/29 05:09:06;;;;;;;;;;;;;;;-144.99;100.00;52623.38;5057819;28;19925;-79
2023/11/29 05:11:33;;;;;;;;;;;;;;;-144.99;100.00;52619.31;5059128;28;19929;-81
2023/11/29 05:13:59;;;;;;;;;;;;;;;-144.99;100.00;52615.25;5052794;28;19913;-76
2023/11/29 05:16:27;;;;;;;;;;;;;;;-144.99;100.00;52680.47;5053449;28;19925;-74
2023/11/29 05:18:53;;;;;;;;;;;;;;;-144.99;100.00;52627.47;5060062;28;19929;-78
2023/11/29 05:21:20;;;;;;;;;;;;;;;-144.99;100.00;52660.09;5052427;28;20313;-78
2023/11/29 05:23:46;;;;;;;;;;;;;;;-144.99;100.00;52668.22;5035914;28;19925;-75
2023/11/29 05:26:14;;;;;;;;;;;;;;;-144.99;100.00;52692.69;5010077;28;19925;-73
2023/11/29 05:28:40;;;;;;;;;;;;;;;-144.99;100.00;52656.00;5032784;28;19933;-73
2023/11/29 05:31:07;;;;;;;;;;;;;;;-144.99;100.00;52615.25;5031791;28;19978;-73
2023/11/29 05:33:35;;;;;;;;;;;;;;;-144.99;100.00;52664.16;5032945;28;19928;-72
2023/11/29 05:36:01;;;;;;;;;;;;;;;-144.99;100.00;52670.28;5033036;28;19975;-77
2023/11/29 05:38:27;;;;;;;;;;;;;;;-144.99;100.00;52672.31;5030273;28;19962;-75
2023/11/29 05:40:54;;;;;;;;;;;;;;;-144.99;100.00;52664.16;5032893;28;19929;-75
2023/11/29 05:43:21;;;;;;;;;;;;;;;-144.99;100.00;52643.78;5035898;28;19975;-76
2023/11/29 05:45:48;;;;;;;;;;;;;;;-144.99;100.00;52619.31;5032346;28;19931;-75
2023/11/29 05:48:15;;;;;;;;;;;;;;;-144.99;100.00;52615.25;5036093;28;19929;-74
2023/11/29 05:50:43;;;;;;;;;;;;;;;-144.99;100.00;52615.25;5040101;28;20015;-75
2023/11/29 05:53:10;;;;;;;;;;;;;;;-144.99;100.00;52627.47;5037393;28;19924;-75
2023/11/29 05:55:36;;;;;;;;;;;;;;;-144.99;100.00;52647.84;5032096;28;19952;-77
2023/11/29 05:58:03;;;;;;;;;;;;;;;-144.99;100.00;52627.47;5038541;28;19960;-76
2023/11/29 06:00:30;;;;;;;;;;;;;;;-144.99;100.00;52668.22;5038196;28;19956;-76
2023/11/29 06:02:57;;;;;;;;;;;;;;;-144.99;100.00;52676.38;5036938;28;20355;-75
2023/11/29 06:05:24;;;;;;;;;;;;;;;-144.99;100.00;52613.19;5033119;28;20332;-77
2023/11/29 06:07:52;;;;;;;;;;;;;;;-144.99;100.00;52668.22;5044671;28;20287;-76
2023/11/29 06:10:19;;;;;;;;;;;;;;;-144.99;100.00;52631.53;5049791;28;19913;-76
2023/11/29 06:12:46;;;;;;;;;;;;;;;-144.99;100.00;52651.94;5049110;28;19913;-78
2023/11/29 06:15:12;;;;;;;;;;;;;;;-144.99;100.00;52651.94;5045948;28;19931;-77
2023/11/29 06:17:39;;;;;;;;;;;;;;;-144.99;100.00;52660.09;5036537;28;19963;-77
2023/11/29 06:20:09;;;;;;;;;;;;;;;-144.99;100.00;52656.00;5035931;28;19948;-76
2023/11/29 06:22:35;;;;;;;;;;;;;;;-144.99;100.00;52647.84;5032822;28;20008;-75
2023/11/29 06:25:04;;;;;;;;;;;;;;;-144.99;100.00;52639.69;5036948;28;19925;-76
2023/11/29 06:27:31;;;;;;;;;;;;;;;-144.99;100.00;52651.94;5025914;28;19933;-75
2023/11/29 06:29:58;;;;;;;;;;;;;;;-144.99;100.00;52631.53;5031674;28;19968;-76
2023/11/29 06:32:24;;;;;;;;;;;;;;;-144.99;100.00;52647.84;5036998;28;20000;-77
2023/11/29 06:34:52;;;;;;;;;;;;;;;-144.99;100.00;52668.22;5040115;28;19925;-76
2023/11/29 06:37:19;;;;;;;;;;;;;;;-144.99;100.00;52647.84;5035965;28;20385;-76
2023/11/29 06:39:46;;;;;;;;;;;;;;;-144.99;100.00;52635.63;5035669;28;19925;-75
2023/11/29 06:42:14;;;;;;;;;;;;;;;-144.99;100.00;52641.72;5035734;28;19924;-76
2023/11/29 06:44:41;;;;;;;;;;;;;;;-144.99;100.00;52682.50;5032175;28;19964;-75
2023/11/29 06:47:07;;;;;;;;;;;;;;;-144.99;100.00;52660.09;5036428;28;19925;-75
2023/11/29 06:49:34;;;;;;;;;;;;;;;-144.99;100.00;52598.94;5038511;28;19956;-75
2023/11/29 06:52:02;;;;;;;;;;;;;;;-144.99;100.00;52680.47;5051090;28;19925;-77
2023/11/29 06:54:29;;;;;;;;;;;;;;;-144.99;100.00;52623.38;5065352;22;19968;-68
2023/11/29 06:56:55;;;;;;;;;;;;;;;-144.99;100.00;52635.63;5074517;28;19963;-67
2023/11/29 06:59:23;;;;;;;;;;;;;;;-144.99;100.00;52625.44;5061620;28;19970;-67
2023/11/29 07:01:50;;;;;;;;;;;;;;;-144.99;100.00;52619.31;5063163;28;19928;-67
2023/11/29 07:04:17;;;;;;;;;;;;;;;-144.99;100.00;52639.69;5072260;28;20420;-67
2023/11/29 07:06:43;;;;;;;;;;;;;;;-144.99;100.00;52643.78;5072174;28;19986;-67
2023/11/29 07:09:13;;;;;;;;;;;;;;;-144.99;100.00;52639.69;5063376;28;20082;-67
2023/11/29 07:11:40;;;;;;;;;;;;;;;-144.99;100.00;52660.09;5057403;28;20387;-69
2023/11/29 07:14:06;;;;;;;;;;;;;;;-144.99;100.00;52653.97;5061648;28;19978;-68
2023/11/29 07:16:34;;;;;;;;;;;;;;;-144.99;100.00;52647.84;5066421;28;19928;-67
2023/11/29 07:19:01;;;;;;;;;;;;;;;-144.99;100.00;52631.53;5065523;28;19981;-68
2023/11/29 07:21:27;;;;;;;;;;;;;;;-144.99;100.00;52619.31;5075123;28;19974;-67
2023/11/29 07:23:54;;;;;;;;;;;;;;;-144.99;100.00;52647.84;5080089;28;19940;-67
2023/11/29 07:26:20;;;;;;;;;;;;;;;-144.99;100.00;52656.00;5072266;28;19978;-67
2023/11/29 07:28:47;;;;;;;;;;;;;;;-144.99;100.00;52676.38;5073896;28;19928;-68
2023/11/29 07:31:14;;;;;;;;;;;;;;;-144.99;100.00;52658.03;5066045;28;20311;-67
2023/11/29 07:33:42;;;;;;;;;;;;;;;-144.99;100.00;52664.16;5061622;28;20002;-67
2023/11/29 07:36:11;;;;;;;;;;;;;;;-144.99;100.00;52631.53;5067898;28;19928;-68
2023/11/29 07:38:38;;;;;;;;;;;;;;;-144.99;100.00;52649.88;5072038;28;20020;-68
2023/11/29 07:41:04;;;;;;;;;;;;;;;-144.99;100.00;52619.31;5063748;28;19928;-67
2023/11/29 07:43:31;;;;;;;;;;;;;;;-144.99;100.00;52635.63;5059808;28;20014;-68
2023/11/29 07:45:58;;;;;;;;;;;;;;;-144.99;100.00;52643.78;5060592;28;19924;-68
2023/11/29 07:48:25;;;;;;;;;;;;;;;-144.99;100.00;52635.63;5068372;28;19924;-68
2023/11/29 07:50:54;;;;;;;;;;;;;;;-144.99;100.00;52625.44;5062812;28;19979;-68
2023/11/29 07:53:21;;;;;;;;;;;;;;;-144.99;100.00;52664.16;5064067;28;19963;-68
2023/11/29 07:55:47;;;;;;;;;;;;;;;-144.99;100.00;52619.31;5068481;28;19924;-67
2023/11/29 07:58:14;;;;;;;;;;;;;;;-144.99;100.00;52623.38;5069456;28;19924;-68
2023/11/29 08:00:41;;;;;;;;;;;;;;;-144.99;100.00;52635.63;5067858;28;19960;-68
2023/11/29 08:03:07;;;;;;;;;;;;;;;-144.99;100.00;52619.31;5067495;28;20322;-70
2023/11/29 08:05:35;;;;;;;;;;;;;;;-144.99;100.00;52639.69;5071342;28;19988;-68
2023/11/29 08:08:04;;;;;;;;;;;;;;;-144.99;100.00;52631.53;5063611;28;19929;-68
2023/11/29 08:10:31;;;;;;;;;;;;;;;-144.99;100.00;52643.78;5070965;28;19935;-68
2023/11/29 08:12:58;;;;;;;;;;;;;;;-144.99;100.00;52684.53;5067462;28;19935;-68
2023/11/29 08:15:26;;;;;;;;;;;;;;;-144.99;100.00;52639.69;5062257;28;20007;-69
2023/11/29 08:17:52;;;;;;;;;;;;;;;-144.99;100.00;52641.72;5065749;28;19932;-69
2023/11/29 08:20:19;;;;;;;;;;;;;;;-144.99;100.00;52627.47;5064737;28;19970;-69
2023/11/29 08:22:45;;;;;;;;;;;;;;;-144.99;100.00;52647.84;5066446;28;19963;-68
2023/11/29 08:25:13;;;;;;;;;;;;;;;-144.99;100.00;52660.09;5072526;28;19932;-68
2023/11/29 08:27:40;;;;;;;;;;;;;;;-144.99;100.00;52664.16;5066480;28;19925;-68
2023/11/29 08:30:07;;;;;;;;;;;;;;;-144.99;100.00;52615.25;5073353;28;19936;-68
2023/11/29 08:32:34;;;;;;;;;;;;;;;-144.99;100.00;52623.38;5066187;28;19928;-67
2023/11/29 08:35:01;;;;;;;;;;;;;;;-144.99;100.00;52639.69;5073157;28;20436;-68
2023/11/29 08:37:27;;;;;;;;;;;;;;;-144.99;100.00;52656.00;5071669;28;19932;-67
2023/11/29 08:39:55;;;;;;;;;;;;;;;-144.99;100.00;52627.47;5055914;28;19925;-67
2023/11/29 08:42:23;;;;;;;;;;;;;;;-144.99;100.00;52664.16;5064872;28;19924;-67
2023/11/29 08:44:49;;;;;;;;;;;;;;;-144.99;100.00;52621.34;5074561;28;19925;-68
2023/11/29 08:47:16;;;;;;;;;;;;;;;-144.99;100.00;52627.47;5086385;28;20367;-68
2023/11/29 08:49:42;;;;;;;;;;;;;;;-144.99;100.00;52582.63;5071059;28;19972;-68
2023/11/29 08:52:09;;;;;;;;;;;;;;;-144.99;100.00;52631.53;5055723;28;19935;-67
2023/11/29 08:54:35;;;;;;;;;;;;;;;-144.99;100.00;52623.38;5062264;28;19982;-68
2023/11/29 08:57:02;;;;;;;;;;;;;;;-144.99;100.00;52668.22;5068428;28;19935;-68
2023/11/29 08:59:30;;;;;;;;;;;;;;;-144.99;100.00;52615.25;5073015;28;19939;-68
2023/11/29 09:01:56;;;;;;;;;;;;;;;-144.99;100.00;52645.81;5062466;28;19968;-67
2023/11/29 09:04:23;;;;;;;;;;;;;;;-144.99;100.00;52660.09;5067962;28;19965;-67
2023/11/29 09:06:49;;;;;;;;;;;;;;;-144.99;100.00;52639.69;5060077;28;20006;-67
2023/11/29 09:09:17;;;;;;;;;;;;;;;-144.99;100.00;52639.69;5062342;28;19979;-68
2023/11/29 09:11:44;;;;;;;;;;;;;;;-144.99;100.00;52619.31;5079973;28;19997;-67
2023/11/29 09:14:11;;;;;;;;;;;;;;;-144.99;100.00;52631.53;5057566;28;19932;-67
2023/11/29 09:16:39;;;;;;;;;;;;;;;-144.99;100.00;52600.97;5073151;28;20361;-69
2023/11/29 09:19:05;;;;;;;;;;;;;;;-144.99;100.00;52631.53;5057511;28;19928;-69
2023/11/29 09:21:35;;;;;;;;;;;;;;;-144.99;100.00;52619.31;5056675;28;19932;-69
2023/11/29 09:24:04;;;;;;;;;;;;;;;-144.99;100.00;52611.16;5063741;28;20187;-68
2023/11/29 09:26:31;;;;;;;;;;;;;;;-144.99;100.00;52627.47;5080261;28;19935;-69
2023/11/29 09:28:57;;;;;;;;;;;;;;;-144.99;100.00;52631.53;5085909;28;19940;-69
2023/11/29 09:31:26;;;;;;;;;;;;;;;-144.99;100.00;52627.47;5071614;28;19933;-69
2023/11/29 09:33:57;;;;;;;;;;;;;;;-144.99;100.00;52627.47;5078003;28;19951;-68
2023/11/29 09:36:23;;;;;;;;;;;;;;;-144.99;100.00;52645.81;5066564;28;20023;-69
2023/11/29 09:38:50;;;;;;;;;;;;;;;-144.99;100.00;52635.63;5066229;28;19924;-69
2023/11/29 09:41:17;;;;;;;;;;;;;;;-144.99;100.00;52651.94;5079995;28;20369;-68
2023/11/29 09:43:44;;;;;;;;;;;;;;;-144.99;100.00;52635.63;5069430;28;19924;-68
2023/11/29 09:46:11;;;;;;;;;;;;;;;-144.99;100.00;52607.09;5091317;28;20354;-69
2023/11/29 09:48:38;;;;;;;;;;;;;;;-144.99;100.00;52641.72;5066239;28;19924;-69
2023/11/29 09:51:06;;;;;;;;;;;;;;;-144.99;100.00;52647.84;5064044;28;20066;-69
2023/11/29 09:53:33;;;;;;;;;;;;;;;-144.99;100.00;52623.38;5069932;28;20186;-68
2023/11/29 09:55:59;;;;;;;;;;;;;;;-144.99;100.00;52619.31;5069274;28;19933;-68
2023/11/29 09:58:27;;;;;;;;;;;;;;;-144.99;100.00;52629.50;5063401;28;19932;-69
2023/11/29 10:00:53;;;;;;;;;;;;;;;-144.99;100.00;52619.31;5070443;28;19929;-67
2023/11/29 10:03:21;;;;;;;;;;;;;;;-144.99;100.00;52615.25;5065364;28;20021;-68
2023/11/29 10:05:49;;;;;;;;;;;;;;;-144.99;100.00;52635.63;5068933;28;20387;-68
2023/11/29 10:08:19;;;;;;;;;;;;;;;-144.99;100.00;52619.31;5070401;28;20409;-68
2023/11/29 10:10:45;;;;;;;;;;;;;;;-144.99;100.00;52664.16;5072633;28;19982;-68
2023/11/29 10:13:14;;;;;;;;;;;;;;;-144.99;100.00;52656.00;5073534;28;19974;-69
2023/11/29 10:15:44;;;;;;;;;;;;;;;-144.99;100.00;52639.69;5069380;28;19994;-68
2023/11/29 10:18:11;;;;;;;;;;;;;;;-144.99;100.00;52598.94;5079468;28;19929;-69
2023/11/29 10:20:37;;;;;;;;;;;;;;;-144.99;100.00;52619.31;5075522;28;19924;-68
2023/11/29 10:23:04;;;;;;;;;;;;;;;-144.99;100.00;52643.78;5074507;28;19935;-69
2023/11/29 10:25:34;;;;;;;;;;;;;;;-144.99;100.00;52603.00;5070734;28;19978;-68
2023/11/29 10:28:00;;;;;;;;;;;;;;;-144.99;100.00;52643.78;5068471;28;19991;-68
2023/11/29 10:30:27;;;;;;;;;;;;;;;-144.99;100.00;52627.47;5068992;28;21050;-67
2023/11/29 10:32:53;;;;;;;;;;;;;;;-144.99;100.00;52639.69;5069263;28;19932;-68
2023/11/29 10:35:21;;;;;;;;;;;;;;;-144.99;100.00;52594.84;5061949;28;19929;-68
2023/11/29 10:37:58;;;;;;;;;;;;;;;-144.99;100.00;52594.84;5072409;28;19924;-68
2023/11/29 10:40:25;;;;;;;;;;;;;;;-144.99;100.00;52631.53;5071547;28;19989;-68
2023/11/29 10:42:54;;;;;;;;;;;;;;;-144.99;100.00;52590.78;5077060;28;19937;-68
2023/11/29 10:45:21;;;;;;;;;;;;;;;-144.99;100.00;52631.53;5072561;28;19959;-69
2023/11/29 10:47:53;;;;;;;;;;;;;;;-144.99;100.00;52603.00;5061831;28;20001;-71
2023/11/29 10:50:21;;;;;;;;;;;;;;;-144.99;100.00;52635.63;5082909;28;19932;-69
2023/11/29 10:52:48;;;;;;;;;;;;;;;-144.99;100.00;52598.94;5073375;28;19929;-69
2023/11/29 10:55:15;;;;;;;;;;;;;;;-144.99;100.00;52627.47;5071020;28;19928;-69
2023/11/29 10:57:45;;;;;;;;;;;;;;;-144.99;100.00;52639.69;5066700;28;19932;-69
2023/11/29 11:00:15;;;;;;;;;;;;;;;-144.99;100.00;52656.00;5062192;28;20305;-71
2023/11/29 11:02:44;;;;;;;;;;;;;;;-144.99;100.00;52672.31;5066687;28;20012;-68
2023/11/29 11:05:10;;;;;;;;;;;;;;;-144.99;100.00;52611.16;5068547;28;19924;-68
2023/11/29 11:07:37;;;;;;;;;;;;;;;-144.99;100.00;52635.63;5069009;28;19928;-69
2023/11/29 11:10:04;;;;;;;;;;;;;;;-144.99;100.00;52605.03;5069238;28;20439;-69
2023/11/29 11:12:34;;;;;;;;;;;;;;;-144.99;100.00;52592.81;5069832;28;20340;-68
2023/11/29 11:15:04;;;;;;;;;;;;;;;-144.99;100.00;52578.53;5064823;28;19932;-69
2023/11/29 11:17:32;;;;;;;;;;;;;;;-144.99;100.00;52590.78;5070316;28;19951;-69
2023/11/29 11:20:04;;;;;;;;;;;;;;;-144.99;100.00;52598.94;5073771;28;19974;-69
2023/11/29 11:22:32;;;;;;;;;;;;;;;-144.99;100.00;52643.78;5070050;28;20398;-69
2023/11/29 11:25:01;;;;;;;;;;;;;;;-144.99;100.00;52623.38;5072127;28;20390;-68
2023/11/29 11:27:30;;;;;;;;;;;;;;;-144.99;100.00;52639.69;5067150;28;21171;-68
2023/11/29 11:29:57;;;;;;;;;;;;;;;-144.99;100.00;52611.16;5065555;28;19994;-69
2023/11/29 11:32:42;;;;;;;;;;;;;;;-144.99;100.00;52623.38;5078155;28;19977;-69
2023/11/29 11:35:39;;;;;;;;;;;;;;;-144.99;100.00;52664.16;5067731;28;19991;-70
2023/11/29 11:38:08;;;;;;;;;;;;;;;-144.99;100.00;52619.31;5060039;28;19925;-70
2023/11/29 11:40:36;;;;;;;;;;;;;;;-144.99;100.00;52594.84;5069943;28;19959;-69
2023/11/29 11:43:03;;;;;;;;;;;;;;;-144.99;100.00;52598.94;5066200;28;20016;-69
2023/11/29 11:45:31;;;;;;;;;;;;;;;-144.99;100.00;52639.69;5062301;28;20208;-69
2023/11/29 11:47:58;;;;;;;;;;;;;;;-144.99;100.00;52598.94;5060832;28;20027;-70
2023/11/29 11:50:26;;;;;;;;;;;;;;;-144.99;100.00;52635.63;5067734;28;20359;-70
2023/11/29 11:52:53;;;;;;;;;;;;;;;-144.99;100.00;52615.25;5068487;28;20024;-70
2023/11/29 11:55:23;;;;;;;;;;;;;;;-144.99;100.00;52598.94;5059541;28;20223;-70
2023/11/29 11:57:50;;;;;;;;;;;;;;;-144.99;100.00;52627.47;5064387;28;19924;-71
2023/11/29 12:00:17;;;;;;;;;;;;;;;-144.99;100.00;52611.16;5056950;28;19975;-68
2023/11/29 12:02:44;;;;;;;;;;;;;;;-144.99;100.00;52631.53;5068530;28;20338;-69
2023/11/29 12:05:11;;;;;;;;;;;;;;;-144.99;100.00;52619.31;5071775;28;20129;-67
2023/11/29 12:07:40;;;;;;;;;;;;;;;-144.99;100.00;52607.09;5068297;28;19960;-69
2023/11/29 12:10:08;;;;;;;;;;;;;;;-144.99;100.00;52615.25;5061871;28;19925;-69
2023/11/29 12:12:37;;;;;;;;;;;;;;;-144.99;100.00;52635.63;5076405;28;19932;-69
2023/11/29 12:15:04;;;;;;;;;;;;;;;-144.99;100.00;52651.94;5081348;28;20006;-68
2023/11/29 12:17:34;;;;;;;;;;;;;;;-144.99;100.00;52623.38;5062558;28;20400;-69